Antonino, Kansas
Current Conditions -  °F | °C
As of 12:35 PM on Sunday 23 Nov 2014 (Local Time) from KHYS Reporting Station
Overcast Overcast  
Wind Chill: 32°   Ceiling: 4600
Heat Index: 41°   Visibility: 10mi
Dew Point: 32°   Wind: 18mph
Humidity: 70%   Direction: 360°N
Pressure: 29.59"   Gusts: 29mph
Location:  38.8338°N, 99.3297°W
Report Text: KHYS 231835Z AUTO 36016G25KT 10SM FEW036 BKN046 OVC055 05/00 A2959 RMK AO1
Loading
Personal Weather Stations






























Interactive Weather Map New forecast layout! Learn more

10-Day Weather Forecast

Advertisements
Track Severe Weather on mobile